Time;durP1;ratioP1;P1;durP2;ratioP2;P2;SDS_P1;SDS_P2;PMS_P1;PMS_P2;Temp;Humidity;BMP_temperature;BMP_pressure;BME280_temperature;BME280_humidity;BME280_pressure;Samples;Min_cycle;Max_cycle;Signal;HPM_P1;HPM_P2
2022/02/22 00:00:18;;;;;;;1999.90;387.63;;;5.60;99.90;;;;;;5061424;28;20458;-80
2022/02/22 00:02:48;;;;;;;1686.83;542.40;;;5.60;99.90;;;;;;5027399;28;20447;-80
2022/02/22 00:05:17;;;;;;;1896.23;565.67;;;5.60;99.90;;;;;;5061020;28;20436;-80
2022/02/22 00:07:46;;;;;;;1877.37;594.37;;;5.60;99.90;;;;;;5045609;28;20457;-80
2022/02/22 00:10:15;;;;;;;1999.90;661.27;;;5.60;99.90;;;;;;5047983;28;20517;-80
2022/02/22 00:12:44;;;;;;;1999.90;660.10;;;5.60;99.90;;;;;;5064984;28;20469;-80
2022/02/22 00:15:13;;;;;;;1999.90;538.40;;;5.60;99.90;;;;;;5072684;28;20964;-81
2022/02/22 00:17:44;;;;;;;1952.00;636.97;;;5.60;99.90;;;;;;5027134;28;20471;-80
2022/02/22 00:20:16;;;;;;;1955.73;623.63;;;5.60;99.90;;;;;;5049058;28;20456;-80
2022/02/22 00:22:45;;;;;;;1999.90;672.63;;;5.60;99.90;;;;;;5047689;28;20462;-80
2022/02/22 00:25:14;;;;;;;1719.13;401.33;;;5.60;99.90;;;;;;5066382;28;20848;-80
2022/02/22 00:27:43;;;;;;;1950.90;626.60;;;5.60;99.90;;;;;;5024266;28;20451;-80
2022/02/22 00:30:14;;;;;;;1747.90;545.53;;;5.60;99.90;;;;;;5025704;28;20444;-80
2022/02/22 00:32:43;;;;;;;1961.63;627.70;;;5.60;99.90;;;;;;5041099;28;20837;-79
2022/02/22 00:35:14;;;;;;;989.87;315.87;;;5.60;99.90;;;;;;5048957;28;20472;-80
2022/02/22 00:37:43;;;;;;;1999.90;683.30;;;5.60;99.90;;;;;;5084773;28;20458;-80
2022/02/22 00:40:15;;;;;;;1837.53;408.63;;;5.60;99.90;;;;;;5084979;28;20469;-80
2022/02/22 00:42:46;;;;;;;1999.90;654.50;;;5.60;99.90;;;;;;5051002;28;20474;-80
2022/02/22 00:45:14;;;;;;;1845.80;564.93;;;5.60;99.90;;;;;;5051336;28;20496;-80
2022/02/22 00:47:42;;;;;;;1848.53;566.43;;;5.60;99.90;;;;;;5069249;28;20458;-80
2022/02/22 00:50:11;;;;;;;1999.90;715.30;;;5.60;99.90;;;;;;5067962;28;20442;-80
2022/02/22 00:52:41;;;;;;;1999.90;596.63;;;5.60;99.90;;;;;;5040835;28;20488;-80
2022/02/22 00:55:10;;;;;;;1999.90;490.47;;;5.50;99.90;;;;;;5075866;28;20462;-79
2022/02/22 00:57:41;;;;;;;1578.60;352.70;;;5.50;99.90;;;;;;5050478;28;20553;-80
2022/02/22 01:00:11;;;;;;;1999.90;666.83;;;5.50;99.90;;;;;;5083840;28;20548;-80
2022/02/22 01:02:40;;;;;;;1999.90;886.07;;;5.50;99.90;;;;;;5068254;28;20458;-80
2022/02/22 01:05:09;;;;;;;1972.13;651.10;;;5.50;99.90;;;;;;5051015;28;20448;-80
2022/02/22 01:07:37;;;;;;;1999.90;468.83;;;5.50;99.90;;;;;;5050242;28;20485;-80
2022/02/22 01:10:08;;;;;;;1986.53;624.43;;;5.50;99.90;;;;;;5068480;28;20469;-80
2022/02/22 01:12:37;;;;;;;1913.33;518.23;;;5.50;99.90;;;;;;5082119;28;20535;-80
2022/02/22 01:15:07;;;;;;;1999.90;668.77;;;5.50;99.90;;;;;;5050653;28;20442;-80
2022/02/22 01:17:36;;;;;;;1999.90;510.90;;;5.50;99.90;;;;;;5050481;28;20533;-80
2022/02/22 01:20:08;;;;;;;1999.90;513.03;;;5.60;99.90;;;;;;5081227;28;20492;-80
2022/02/22 01:22:37;;;;;;;1651.80;462.43;;;5.60;99.90;;;;;;5049718;28;20470;-80
2022/02/22 01:25:09;;;;;;;1999.90;599.37;;;5.60;99.90;;;;;;5050190;28;20496;-80
2022/02/22 01:27:38;;;;;;;1595.43;495.73;;;5.60;99.90;;;;;;5049918;28;20457;-80
2022/02/22 01:30:08;;;;;;;1956.27;542.73;;;5.60;99.90;;;;;;5049743;28;20544;-80
2022/02/22 01:32:37;;;;;;;1846.63;478.93;;;5.60;99.90;;;;;;5040447;28;20518;-80
2022/02/22 01:35:06;;;;;;;1980.50;449.10;;;5.60;99.90;;;;;;5026597;28;20455;-80
2022/02/22 01:37:35;;;;;;;1644.80;536.27;;;5.60;99.90;;;;;;5028879;28;20467;-80
2022/02/22 01:40:04;;;;;;;1999.90;470.80;;;5.60;99.90;;;;;;5044728;28;20455;-80
2022/02/22 01:42:34;;;;;;;1570.67;511.03;;;5.60;99.90;;;;;;5044646;28;20469;-80
2022/02/22 01:45:03;;;;;;;1912.03;669.37;;;5.60;99.90;;;;;;5049074;28;20450;-80
2022/02/22 01:47:31;;;;;;;1949.27;489.33;;;5.60;99.90;;;;;;5049907;28;20446;-80
2022/02/22 01:50:00;;;;;;;1890.80;625.20;;;5.50;99.90;;;;;;5082252;28;20465;-79
2022/02/22 01:52:28;;;;;;;1999.90;461.47;;;5.50;99.90;;;;;;5046337;28;20469;-80
2022/02/22 01:54:57;;;;;;;1999.90;725.20;;;5.50;99.90;;;;;;5042098;28;20489;-80
2022/02/22 01:57:26;;;;;;;1999.90;755.50;;;5.50;99.90;;;;;;5045572;28;20466;-80
2022/02/22 01:59:55;;;;;;;1999.90;785.27;;;5.50;99.90;;;;;;5045061;28;20551;-80
2022/02/22 02:02:24;;;;;;;1999.90;323.60;;;5.40;99.90;;;;;;5046157;28;20467;-80
2022/02/22 02:04:52;;;;;;;1999.90;687.47;;;5.40;99.90;;;;;;5061755;28;20510;-79
2022/02/22 02:07:20;;;;;;;1983.10;631.77;;;5.40;99.90;;;;;;5044713;28;20505;-80
2022/02/22 02:09:49;;;;;;;1986.20;723.70;;;5.40;99.90;;;;;;5031682;28;20526;-80
2022/02/22 02:12:17;;;;;;;1999.90;434.60;;;5.40;99.90;;;;;;5038349;28;20483;-80
2022/02/22 02:14:45;;;;;;;1723.33;294.80;;;5.30;99.90;;;;;;5049385;28;20464;-79
2022/02/22 02:17:17;;;;;;;1999.90;999.90;;;5.30;99.90;;;;;;5027133;28;20488;-80
2022/02/22 02:19:45;;;;;;;1979.23;366.60;;;5.30;99.90;;;;;;5039315;28;20542;-80
2022/02/22 02:22:15;;;;;;;1999.90;999.90;;;5.30;99.90;;;;;;5079526;28;20492;-80
2022/02/22 02:24:44;;;;;;;1999.90;999.90;;;5.30;99.90;;;;;;5046256;28;20461;-80
2022/02/22 02:27:12;;;;;;;1999.90;630.83;;;5.30;99.90;;;;;;5079486;28;20442;-80
2022/02/22 02:29:44;;;;;;;1999.90;765.23;;;5.20;99.90;;;;;;5065413;28;20442;-80
2022/02/22 02:32:13;;;;;;;1999.90;703.40;;;5.20;99.90;;;;;;5048053;28;20478;-80
2022/02/22 02:34:41;;;;;;;1999.90;483.90;;;5.20;99.90;;;;;;5038997;28;20447;-80
2022/02/22 02:37:10;;;;;;;1999.90;569.37;;;5.20;99.90;;;;;;5024100;28;20494;-80
2022/02/22 02:39:40;;;;;;;1999.90;574.13;;;5.10;99.90;;;;;;5040021;28;20452;-80
2022/02/22 02:42:08;;;;;;;1999.90;824.50;;;5.10;99.90;;;;;;5005704;28;20893;-80
2022/02/22 02:44:37;;;;;;;1999.90;999.90;;;5.10;99.90;;;;;;5046286;28;20951;-79
2022/02/22 02:47:05;;;;;;;1999.90;871.73;;;5.10;99.90;;;;;;5064129;28;20446;-80
2022/02/22 02:49:34;;;;;;;1999.90;999.90;;;5.10;99.90;;;;;;5079097;28;20473;-80
2022/02/22 02:52:02;;;;;;;1999.90;676.47;;;5.10;99.90;;;;;;5032953;28;20527;-79
2022/02/22 02:54:31;;;;;;;1999.90;999.90;;;5.10;99.90;;;;;;5063042;28;20945;-80
2022/02/22 02:57:00;;;;;;;1999.90;725.73;;;5.10;99.90;;;;;;5057490;28;20451;-80
2022/02/22 02:59:29;;;;;;;1999.90;779.17;;;5.10;99.90;;;;;;5042027;28;20505;-80
2022/02/22 03:01:57;;;;;;;1999.90;782.90;;;5.00;99.90;;;;;;5038314;28;20988;-79
2022/02/22 03:04:26;;;;;;;1999.90;798.47;;;5.10;99.90;;;;;;5040092;28;20535;-79
2022/02/22 03:06:54;;;;;;;1999.90;775.67;;;5.00;99.90;;;;;;5006810;28;20469;-80
2022/02/22 03:09:23;;;;;;;1999.90;724.67;;;5.00;99.90;;;;;;5021989;28;20452;-80
2022/02/22 03:11:51;;;;;;;1999.90;589.27;;;5.00;99.90;;;;;;5036717;28;20566;-80
2022/02/22 03:14:21;;;;;;;1999.90;744.57;;;5.00;99.90;;;;;;5048565;28;20484;-79
2022/02/22 03:16:49;;;;;;;1999.90;999.90;;;5.00;99.90;;;;;;5061445;28;20506;-80
2022/02/22 03:19:20;;;;;;;1999.90;830.57;;;4.90;99.90;;;;;;5061875;28;20522;-80
2022/02/22 03:21:49;;;;;;;1999.90;799.73;;;4.90;99.90;;;;;;5044498;28;20549;-80
2022/02/22 03:24:17;;;;;;;1999.90;529.53;;;4.90;99.90;;;;;;5061966;28;20453;-79
2022/02/22 03:26:45;;;;;;;1999.90;999.90;;;4.90;99.90;;;;;;5038426;28;20454;-80
2022/02/22 03:29:14;;;;;;;1999.90;762.67;;;4.90;99.90;;;;;;5035464;28;20517;-79
2022/02/22 03:31:43;;;;;;;1999.90;431.77;;;4.90;99.90;;;;;;5023952;28;20992;-79
2022/02/22 03:34:12;;;;;;;1999.90;711.53;;;4.90;99.90;;;;;;5036422;28;20479;-79
2022/02/22 03:36:41;;;;;;;1999.90;637.73;;;4.90;99.90;;;;;;5037112;28;20452;-80
2022/02/22 03:39:09;;;;;;;1999.90;623.47;;;4.90;99.90;;;;;;5021174;28;20472;-79
2022/02/22 03:41:38;;;;;;;1999.90;718.27;;;4.90;99.90;;;;;;5039301;28;20475;-79
2022/02/22 03:44:06;;;;;;;1999.90;999.90;;;4.90;99.90;;;;;;5040451;28;20929;-79
2022/02/22 03:46:35;;;;;;;1999.90;686.73;;;4.90;99.90;;;;;;5055378;28;20435;-79
2022/02/22 03:49:05;;;;;;;1999.90;524.73;;;4.90;99.90;;;;;;5057211;28;20473;-80
2022/02/22 03:51:33;;;;;;;1999.90;999.90;;;4.90;99.90;;;;;;5004560;28;20472;-80
2022/02/22 03:54:01;;;;;;;1999.90;619.33;;;4.90;99.90;;;;;;5020085;28;20443;-79
2022/02/22 03:56:30;;;;;;;1999.90;999.90;;;4.90;99.90;;;;;;5034908;28;20462;-79
2022/02/22 03:58:58;;;;;;;1999.90;999.90;;;4.80;99.90;;;;;;5060711;28;20471;-80
2022/02/22 04:01:27;;;;;;;1999.90;999.90;;;4.80;99.90;;;;;;5043571;28;20565;-80
2022/02/22 04:03:55;;;;;;;1999.90;770.87;;;4.80;99.90;;;;;;5061892;28;20449;-80
2022/02/22 04:06:25;;;;;;;1999.90;999.90;;;4.80;99.90;;;;;;5035650;28;20474;-79
2022/02/22 04:08:53;;;;;;;1999.90;781.73;;;4.70;99.90;;;;;;5054633;28;20568;-79
2022/02/22 04:11:21;;;;;;;1999.90;999.90;;;4.70;99.90;;;;;;5032011;28;20484;-79
2022/02/22 04:13:50;;;;;;;1999.90;999.90;;;4.70;99.90;;;;;;5058664;28;20554;-80
2022/02/22 04:16:18;;;;;;;1999.90;999.90;;;4.70;99.90;;;;;;5027757;28;20800;-80
2022/02/22 04:18:46;;;;;;;1922.57;777.47;;;4.70;99.90;;;;;;5028334;28;20462;-80
2022/02/22 04:21:15;;;;;;;1999.90;782.43;;;4.70;99.90;;;;;;5039241;28;20463;-79
2022/02/22 04:23:44;;;;;;;1999.90;904.40;;;4.60;99.90;;;;;;5061033;28;20447;-80
2022/02/22 04:26:13;;;;;;;1999.90;999.90;;;4.60;99.90;;;;;;5061041;28;20447;-80
2022/02/22 04:28:41;;;;;;;1999.90;999.90;;;4.60;99.90;;;;;;5043574;28;20440;-79
2022/02/22 04:31:10;;;;;;;1999.90;964.77;;;4.60;99.90;;;;;;5039916;28;20467;-79
2022/02/22 04:33:38;;;;;;;1999.90;999.90;;;4.60;99.90;;;;;;5039399;28;20521;-80
2022/02/22 04:36:07;;;;;;;1999.90;999.90;;;4.60;99.90;;;;;;5032254;28;20526;-79
2022/02/22 04:38:35;;;;;;;1999.90;908.60;;;4.60;99.90;;;;;;5041661;28;20507;-79
2022/02/22 04:41:05;;;;;;;1999.90;898.50;;;4.60;99.90;;;;;;5037891;28;20470;-79
2022/02/22 04:43:33;;;;;;;1999.90;508.70;;;4.50;99.90;;;;;;5023639;28;20503;-79
2022/02/22 04:46:02;;;;;;;1999.90;999.90;;;4.60;99.90;;;;;;5034202;28;20433;-79
2022/02/22 04:48:30;;;;;;;1999.90;874.97;;;4.60;99.90;;;;;;5059342;28;20509;-80
2022/02/22 04:50:59;;;;;;;1999.90;999.90;;;4.50;99.90;;;;;;5043005;28;20545;-80
2022/02/22 04:53:27;;;;;;;1999.90;861.37;;;4.50;99.90;;;;;;5041918;28;20457;-79
2022/02/22 04:55:57;;;;;;;1999.90;856.93;;;4.50;99.90;;;;;;5041637;28;20446;-79
2022/02/22 04:58:27;;;;;;;1999.90;841.70;;;4.50;99.90;;;;;;5040723;28;20496;-79
2022/02/22 05:00:56;;;;;;;1999.90;735.90;;;4.50;99.90;;;;;;5069738;28;20471;-80
2022/02/22 05:03:24;;;;;;;1999.90;999.90;;;4.50;99.90;;;;;;5037885;28;20880;-80
2022/02/22 05:05:53;;;;;;;1999.90;523.13;;;4.50;99.90;;;;;;5029472;28;20483;-79
2022/02/22 05:08:22;;;;;;;1999.90;760.03;;;4.50;99.90;;;;;;5034650;28;20536;-79
2022/02/22 05:10:50;;;;;;;1999.90;999.90;;;4.50;99.90;;;;;;5021575;28;20532;-80
2022/02/22 05:13:19;;;;;;;1999.90;545.53;;;4.50;99.90;;;;;;5021290;28;20466;-79
2022/02/22 05:15:49;;;;;;;1999.90;897.50;;;4.50;99.90;;;;;;5022354;28;20446;-79
2022/02/22 05:18:17;;;;;;;1999.90;734.50;;;4.50;99.90;;;;;;5073596;28;20533;-79
2022/02/22 05:20:55;;;;;;;1999.90;999.90;;;4.50;99.90;;;;;;5041955;28;20983;-79
2022/02/22 05:23:24;;;;;;;1999.90;769.97;;;4.40;99.90;;;;;;5044546;28;20440;-79
2022/02/22 05:25:53;;;;;;;1999.90;763.27;;;4.40;99.90;;;;;;5044759;28;20982;-80
2022/02/22 05:28:22;;;;;;;1999.90;802.87;;;4.40;99.90;;;;;;5062717;28;20935;-79
2022/02/22 05:30:53;;;;;;;1999.90;999.90;;;4.40;99.90;;;;;;5062086;28;20531;-79
2022/02/22 05:33:23;;;;;;;1874.90;445.17;;;4.40;99.90;;;;;;5020066;28;20463;-79
2022/02/22 05:35:53;;;;;;;1999.90;812.37;;;4.40;99.90;;;;;;5021084;28;20443;-80
2022/02/22 05:38:22;;;;;;;1899.20;714.20;;;4.30;99.90;;;;;;5021668;28;20447;-79
2022/02/22 05:40:50;;;;;;;1999.90;807.10;;;4.30;99.90;;;;;;5023398;28;20462;-80
2022/02/22 05:43:19;;;;;;;1999.90;722.53;;;4.30;99.90;;;;;;5021109;28;20460;-79
2022/02/22 05:45:47;;;;;;;1999.90;937.27;;;4.30;99.90;;;;;;5020646;28;20452;-79
2022/02/22 05:48:17;;;;;;;1999.90;999.90;;;4.30;99.90;;;;;;5041428;28;20462;-80
2022/02/22 05:50:45;;;;;;;1999.90;791.80;;;4.30;99.90;;;;;;5034989;28;21058;-79
2022/02/22 05:53:14;;;;;;;1999.90;923.27;;;4.30;99.90;;;;;;5058305;28;20462;-79
2022/02/22 05:55:43;;;;;;;1999.90;706.27;;;4.30;99.90;;;;;;5034687;28;20540;-79
2022/02/22 05:58:11;;;;;;;1999.90;742.03;;;4.20;99.90;;;;;;5078305;28;20527;-79
2022/02/22 06:00:40;;;;;;;1999.90;757.97;;;4.30;99.90;;;;;;5043887;28;20982;-79
2022/02/22 06:03:08;;;;;;;1999.90;727.57;;;4.20;99.90;;;;;;5062495;28;20533;-79
2022/02/22 06:05:39;;;;;;;1999.90;999.90;;;4.20;99.90;;;;;;5044324;28;20450;-79
2022/02/22 06:08:07;;;;;;;1999.90;710.40;;;4.20;99.90;;;;;;5043791;28;20446;-79
2022/02/22 06:10:35;;;;;;;1999.90;999.90;;;4.20;99.90;;;;;;5047722;28;20439;-79
2022/02/22 06:13:04;;;;;;;1999.90;999.90;;;4.20;99.90;;;;;;5045855;28;20454;-80
2022/02/22 06:15:32;;;;;;;1999.90;999.90;;;4.20;99.90;;;;;;5080865;28;20450;-80
2022/02/22 06:18:01;;;;;;;1999.90;999.90;;;4.20;99.90;;;;;;5064745;28;20477;-78
2022/02/22 06:20:32;;;;;;;1999.90;999.90;;;4.20;99.90;;;;;;5047737;28;20498;-80
2022/02/22 06:23:01;;;;;;;1999.90;681.27;;;4.20;99.90;;;;;;5065542;28;20483;-80
2022/02/22 06:25:30;;;;;;;961.67;486.47;;;4.20;99.90;;;;;;5045336;28;20480;-78
2022/02/22 06:27:58;;;;;;;1449.90;560.90;;;4.20;99.90;;;;;;5045822;28;20826;-80
2022/02/22 06:30:27;;;;;;;1999.90;999.90;;;4.20;99.90;;;;;;5063021;28;20861;-80
2022/02/22 06:32:56;;;;;;;1999.90;840.27;;;4.20;99.90;;;;;;5080092;28;20454;-80
2022/02/22 06:35:25;;;;;;;1999.90;999.90;;;4.20;99.90;;;;;;5045464;28;20461;-79
2022/02/22 06:37:53;;;;;;;1999.90;999.90;;;4.20;99.90;;;;;;5064578;28;20442;-80
2022/02/22 06:40:23;;;;;;;1999.90;999.90;;;4.20;99.90;;;;;;5046052;28;20548;-80
2022/02/22 06:42:53;;;;;;;1999.90;999.90;;;4.20;99.90;;;;;;5047269;28;20476;-82
2022/02/22 06:45:22;;;;;;;1457.37;618.60;;;4.20;99.90;;;;;;5064032;28;20457;-80
2022/02/22 06:47:51;;;;;;;1937.10;654.47;;;4.20;99.90;;;;;;5044921;28;20446;-79
2022/02/22 06:50:19;;;;;;;1999.90;650.97;;;4.10;99.90;;;;;;5045331;28;20540;-80
2022/02/22 06:52:48;;;;;;;1999.90;791.77;;;4.10;99.90;;;;;;5046218;28;20497;-80
2022/02/22 06:55:16;;;;;;;1999.90;999.90;;;4.10;99.90;;;;;;5045275;28;20479;-80
2022/02/22 06:57:51;;;;;;;1999.90;999.90;;;4.10;99.90;;;;;;5045036;28;20450;-80
2022/02/22 07:00:21;;;;;;;994.07;576.13;;;4.10;99.90;;;;;;5079807;28;20469;-80
2022/02/22 07:02:50;;;;;;;1999.90;999.90;;;4.10;99.90;;;;;;5080880;28;20442;-80
2022/02/22 07:05:19;;;;;;;1999.90;999.90;;;4.10;99.90;;;;;;5047384;28;20461;-79
2022/02/22 07:07:54;;;;;;;1999.90;999.90;;;4.20;99.90;;;;;;5046933;28;20469;-79
2022/02/22 07:10:22;;;;;;;667.30;447.47;;;4.20;99.90;;;;;;5064759;28;20450;-80
2022/02/22 07:12:52;;;;;;;735.63;503.37;;;4.20;99.90;;;;;;5047231;28;20495;-80
2022/02/22 07:15:21;;;;;;;386.30;287.83;;;4.20;99.90;;;;;;5080176;28;20445;-80
2022/02/22 07:17:50;;;;;;;319.20;292.47;;;4.20;99.90;;;;;;5047890;28;20445;-80
2022/02/22 07:20:20;;;;;;;1999.90;999.90;;;4.20;99.90;;;;;;5048194;28;20488;-80
2022/02/22 07:22:49;;;;;;;1999.90;683.43;;;4.30;99.90;;;;;;5047189;28;20472;-79
2022/02/22 07:25:19;;;;;;;1999.90;575.93;;;4.30;99.90;;;;;;5047538;28;20454;-80
2022/02/22 07:27:47;;;;;;;333.93;301.23;;;4.30;99.90;;;;;;5048142;28;20454;-80
2022/02/22 07:30:19;;;;;;;1999.90;999.90;;;4.30;99.90;;;;;;5080306;28;20453;-80
2022/02/22 07:32:48;;;;;;;1999.90;999.90;;;4.40;99.90;;;;;;5080019;28;20473;-80
2022/02/22 07:35:16;;;;;;;1999.90;673.20;;;4.40;99.90;;;;;;5047307;28;20468;-80
2022/02/22 07:37:46;;;;;;;294.73;272.17;;;4.40;99.90;;;;;;5063884;28;20489;-79
2022/02/22 07:40:19;;;;;;;1999.90;723.97;;;4.40;99.90;;;;;;5079632;28;20480;-80
2022/02/22 07:42:54;;;;;;;352.80;317.53;;;4.50;99.90;;;;;;5045759;28;20457;-80
2022/02/22 07:45:24;;;;;;;1999.90;739.93;;;4.50;99.90;;;;;;5046859;28;21019;-80
2022/02/22 07:47:52;;;;;;;537.80;391.90;;;4.60;99.90;;;;;;5081036;28;20450;-80
2022/02/22 07:50:20;;;;;;;248.13;227.83;;;4.60;99.90;;;;;;5047987;28;20517;-80
2022/02/22 07:52:49;;;;;;;393.93;313.37;;;4.70;99.90;;;;;;5083766;28;21017;-80
2022/02/22 07:55:17;;;;;;;148.23;132.20;;;4.70;99.90;;;;;;5048079;28;20445;-80
2022/02/22 07:57:47;;;;;;;423.77;320.00;;;4.80;99.90;;;;;;5048701;28;20504;-80
2022/02/22 08:00:16;;;;;;;174.27;158.70;;;4.80;99.90;;;;;;5047665;28;20466;-80
2022/02/22 08:02:54;;;;;;;250.10;231.73;;;4.90;99.90;;;;;;5046966;28;20477;-80
2022/02/22 08:05:23;;;;;;;350.73;266.20;;;4.90;99.90;;;;;;5048048;28;20820;-80
2022/02/22 08:07:52;;;;;;;141.60;131.53;;;5.00;99.90;;;;;;5065794;28;20432;-80
2022/02/22 08:10:24;;;;;;;431.27;284.33;;;5.10;99.90;;;;;;5047906;28;20446;-80
2022/02/22 08:12:52;;;;;;;909.47;289.60;;;5.10;99.90;;;;;;5065900;28;20459;-80
2022/02/22 08:15:21;;;;;;;241.37;162.63;;;5.20;99.90;;;;;;5047496;28;20450;-80
2022/02/22 08:17:54;;;;;;;675.83;299.07;;;5.30;99.90;;;;;;5047441;28;20470;-80
2022/02/22 08:20:23;;;;;;;166.60;86.13;;;5.30;99.90;;;;;;5047509;28;20461;-80
2022/02/22 08:22:55;;;;;;;137.53;64.03;;;5.40;99.90;;;;;;5080433;28;20445;-79
2022/02/22 08:25:24;;;;;;;189.23;34.80;;;5.50;99.90;;;;;;5046755;28;20450;-80
2022/02/22 08:27:52;;;;;;;164.13;27.07;;;5.60;99.90;;;;;;5065349;28;20465;-80
2022/02/22 08:30:21;;;;;;;221.23;32.10;;;5.70;99.90;;;;;;5066311;28;20450;-80
2022/02/22 08:32:49;;;;;;;162.30;26.83;;;5.80;99.90;;;;;;5066247;28;20513;-81
2022/02/22 08:35:19;;;;;;;129.27;21.07;;;5.80;99.90;;;;;;5049200;28;20454;-80
2022/02/22 08:37:50;;;;;;;244.63;32.13;;;5.80;99.90;;;;;;5065970;28;20426;-80
2022/02/22 08:40:19;;;;;;;150.40;23.07;;;5.80;99.90;;;;;;5048738;28;20495;-80
2022/02/22 08:42:47;;;;;;;321.20;43.37;;;5.90;99.90;;;;;;5065195;28;20462;-78
2022/02/22 08:45:22;;;;;;;169.60;26.57;;;5.90;99.90;;;;;;5064404;28;20429;-79
2022/02/22 08:47:51;;;;;;;231.73;34.17;;;5.90;99.90;;;;;;5046979;28;20449;-79
2022/02/22 08:50:22;;;;;;;179.77;23.00;;;5.90;99.90;;;;;;5079320;28;20465;-78
2022/02/22 08:52:50;;;;;;;209.47;35.50;;;6.00;99.90;;;;;;5042228;28;20438;-79
2022/02/22 08:55:19;;;;;;;168.13;29.80;;;6.00;99.90;;;;;;5043503;28;20940;-79
2022/02/22 08:57:48;;;;;;;239.83;32.23;;;6.10;99.90;;;;;;5047396;28;20457;-79
2022/02/22 09:00:17;;;;;;;263.63;29.80;;;6.10;99.90;;;;;;5046895;28;20940;-79
2022/02/22 09:02:46;;;;;;;195.67;24.10;;;6.10;99.90;;;;;;5045368;28;20466;-79
2022/02/22 09:05:15;;;;;;;189.20;32.67;;;6.20;99.90;;;;;;5046757;28;20457;-78
2022/02/22 09:07:45;;;;;;;157.90;21.37;;;6.20;99.90;;;;;;5047211;28;20445;-79
2022/02/22 09:10:14;;;;;;;213.90;27.47;;;6.20;99.90;;;;;;5065517;28;20488;-80
2022/02/22 09:12:44;;;;;;;212.43;29.70;;;6.20;99.90;;;;;;5064966;28;20469;-79
2022/02/22 09:15:14;;;;;;;194.73;34.07;;;6.30;99.90;;;;;;5065552;28;20455;-79
2022/02/22 09:17:44;;;;;;;327.80;34.03;;;6.30;99.90;;;;;;5048774;28;20442;-80
2022/02/22 09:20:16;;;;;;;205.50;35.60;;;6.30;99.90;;;;;;5066948;28;20463;-79
2022/02/22 09:22:47;;;;;;;159.53;26.03;;;6.40;99.90;;;;;;5047694;28;20472;-79
2022/02/22 09:25:18;;;;;;;221.73;34.80;;;6.40;99.90;;;;;;5082664;28;20860;-80
2022/02/22 09:27:47;;;;;;;148.87;32.97;;;6.50;99.90;;;;;;5049985;28;20596;-79
2022/02/22 09:30:19;;;;;;;165.63;27.37;;;6.40;99.90;;;;;;5049553;28;20985;-79
2022/02/22 09:32:49;;;;;;;391.00;41.07;;;6.40;99.90;;;;;;5083127;28;20481;-80
2022/02/22 09:35:22;;;;;;;321.20;38.87;;;6.40;99.90;;;;;;5082497;28;20479;-79
2022/02/22 09:37:52;;;;;;;296.47;39.87;;;6.50;99.90;;;;;;5050337;28;20464;-79
2022/02/22 09:40:22;;;;;;;223.73;25.43;;;6.60;99.90;;;;;;5048973;28;21069;-79
2022/02/22 09:42:50;;;;;;;298.70;40.97;;;6.60;99.90;;;;;;5048429;28;20470;-79
2022/02/22 09:45:20;;;;;;;197.63;40.43;;;6.70;99.90;;;;;;5049815;28;20454;-79
2022/02/22 09:47:49;;;;;;;236.47;28.23;;;6.70;99.90;;;;;;5049795;28;20442;-79
2022/02/22 09:50:18;;;;;;;219.13;27.57;;;6.80;99.90;;;;;;5082370;28;20481;-79
2022/02/22 09:52:47;;;;;;;243.97;31.93;;;6.80;99.90;;;;;;5067887;28;20854;-79
2022/02/22 09:55:18;;;;;;;319.60;54.33;;;6.80;99.90;;;;;;5067674;28;20438;-79
2022/02/22 09:57:52;;;;;;;251.80;45.97;;;6.90;99.90;;;;;;5049128;28;20447;-79
2022/02/22 10:00:22;;;;;;;181.07;32.90;;;6.90;99.90;;;;;;5083262;28;20452;-79
2022/02/22 10:02:51;;;;;;;228.47;36.57;;;6.90;99.90;;;;;;5048985;28;20482;-79
2022/02/22 10:05:22;;;;;;;242.27;30.33;;;6.90;99.90;;;;;;5049065;28;20525;-79
2022/02/22 10:07:54;;;;;;;267.30;42.07;;;6.90;99.90;;;;;;5067388;28;20522;-79
2022/02/22 10:10:35;;;;;;;396.63;42.97;;;6.90;99.90;;;;;;5066960;28;20430;-79
2022/02/22 10:13:05;;;;;;;203.53;29.17;;;7.00;99.90;;;;;;5065683;28;20547;-79
2022/02/22 10:15:38;;;;;;;285.27;36.13;;;7.10;99.90;;;;;;5048749;28;20454;-79
2022/02/22 10:18:07;;;;;;;144.27;27.80;;;7.00;99.90;;;;;;5048814;28;20446;-79
2022/02/22 10:20:36;;;;;;;243.27;39.83;;;7.10;99.90;;;;;;5048612;28;20451;-79
2022/02/22 10:23:06;;;;;;;275.20;27.47;;;7.20;99.90;;;;;;5048697;28;20482;-80
2022/02/22 10:25:37;;;;;;;235.57;46.27;;;7.20;99.90;;;;;;5066526;28;20433;-80
2022/02/22 10:28:07;;;;;;;298.97;37.50;;;7.30;99.90;;;;;;5048644;28;21011;-80
2022/02/22 10:30:40;;;;;;;309.17;44.97;;;7.30;99.90;;;;;;5048619;28;20434;-79
2022/02/22 10:33:15;;;;;;;436.63;57.43;;;7.30;99.90;;;;;;5047774;28;20442;-79
2022/02/22 10:35:46;;;;;;;226.40;33.23;;;7.40;99.90;;;;;;5048627;28;20439;-79
2022/02/22 10:38:17;;;;;;;337.40;65.70;;;7.40;99.90;;;;;;5048237;28;20894;-79
2022/02/22 10:40:55;;;;;;;306.27;45.13;;;7.40;99.90;;;;;;5048703;28;20468;-79
2022/02/22 10:43:26;;;;;;;233.90;41.57;;;7.50;99.90;;;;;;5078915;28;20461;-79
2022/02/22 10:45:56;;;;;;;353.60;59.30;;;7.50;99.90;;;;;;5043331;28;20484;-80
2022/02/22 10:48:34;;;;;;;372.07;59.87;;;7.50;99.90;;;;;;5045245;28;20448;-79
2022/02/22 10:51:05;;;;;;;439.77;51.17;;;7.60;99.90;;;;;;5064585;28;20979;-79
2022/02/22 10:53:36;;;;;;;446.27;77.03;;;7.60;99.90;;;;;;5048551;28;20967;-79
2022/02/22 10:56:09;;;;;;;506.47;64.20;;;7.70;99.90;;;;;;5065105;28;20434;-79
2022/02/22 10:58:40;;;;;;;227.03;49.87;;;7.70;99.90;;;;;;5047364;28;20443;-79
2022/02/22 11:01:10;;;;;;;252.87;49.13;;;7.80;99.90;;;;;;5047816;28;20494;-79
2022/02/22 11:03:41;;;;;;;280.17;52.67;;;7.80;99.90;;;;;;5065609;28;20413;-79
2022/02/22 11:06:10;;;;;;;198.27;47.13;;;7.90;99.90;;;;;;5047366;28;20951;-78
2022/02/22 11:08:43;;;;;;;287.97;45.27;;;7.90;99.90;;;;;;5065188;28;20439;-79
2022/02/22 11:11:37;;;;;;;317.50;58.07;;;7.90;99.90;;;;;;5046780;28;20498;-79
2022/02/22 11:14:08;;;;;;;316.73;58.10;;;7.90;99.90;;;;;;5048032;28;20449;-79
2022/02/22 11:16:42;;;;;;;215.07;35.33;;;7.90;99.90;;;;;;5048655;28;20445;-80
2022/02/22 11:19:17;;;;;;;393.53;51.83;;;8.00;99.90;;;;;;5081795;28;20538;-80
2022/02/22 11:21:47;;;;;;;315.90;50.77;;;8.00;99.90;;;;;;5065818;28;20478;-79
2022/02/22 11:24:18;;;;;;;319.40;46.27;;;8.00;99.90;;;;;;5079698;28;20500;-79
2022/02/22 11:26:50;;;;;;;232.47;41.77;;;8.00;99.90;;;;;;5081530;28;20468;-79
2022/02/22 11:29:20;;;;;;;223.70;45.23;;;8.00;99.90;;;;;;5080697;28;20480;-80
2022/02/22 11:32:00;;;;;;;342.00;54.53;;;8.10;99.90;;;;;;5047616;28;20474;-79
2022/02/22 11:34:31;;;;;;;265.27;39.90;;;8.10;99.90;;;;;;5081632;28;20446;-79
2022/02/22 11:37:03;;;;;;;329.67;51.47;;;8.10;99.90;;;;;;5047856;28;20457;-79
2022/02/22 11:39:42;;;;;;;292.03;53.27;;;8.10;99.90;;;;;;5080571;28;20484;-80
2022/02/22 11:42:20;;;;;;;177.63;33.87;;;8.10;99.90;;;;;;5047966;28;20543;-79
2022/02/22 11:44:59;;;;;;;384.23;55.33;;;8.10;99.90;;;;;;5065889;28;20507;-79
2022/02/22 11:47:28;;;;;;;332.50;55.97;;;8.20;99.90;;;;;;5048068;28;20459;-79
2022/02/22 11:49:57;;;;;;;253.07;37.97;;;8.20;99.90;;;;;;5047644;28;20445;-79
2022/02/22 11:52:39;;;;;;;227.23;40.30;;;8.20;99.90;;;;;;5047304;28;20469;-79
2022/02/22 11:55:10;;;;;;;280.87;41.57;;;8.20;99.90;;;;;;5047241;28;20459;-79
2022/02/22 11:57:48;;;;;;;308.13;53.37;;;8.20;99.90;;;;;;5081073;28;20441;-80
2022/02/22 12:00:18;;;;;;;221.57;41.77;;;8.30;99.90;;;;;;5066668;28;20441;-80
2022/02/22 12:02:49;;;;;;;173.63;41.00;;;8.30;99.90;;;;;;5047167;28;21024;-79
2022/02/22 12:05:26;;;;;;;306.63;59.97;;;8.30;99.90;;;;;;5048267;28;20531;-79
2022/02/22 12:08:01;;;;;;;287.50;49.47;;;8.30;99.90;;;;;;5065777;28;20423;-80
2022/02/22 12:10:32;;;;;;;289.13;40.13;;;8.30;99.90;;;;;;5064661;28;20453;-79
2022/02/22 12:13:09;;;;;;;219.20;42.63;;;8.30;99.90;;;;;;5065147;28;20551;-79
2022/02/22 12:15:39;;;;;;;176.57;40.00;;;8.30;99.90;;;;;;5047291;28;20442;-80
2022/02/22 12:18:13;;;;;;;241.53;54.10;;;8.40;99.90;;;;;;5081473;28;20566;-80
2022/02/22 12:20:43;;;;;;;297.17;46.13;;;8.40;99.90;;;;;;5064629;28;20424;-80
2022/02/22 12:23:20;;;;;;;216.93;44.20;;;8.40;99.90;;;;;;5045754;28;20474;-79
2022/02/22 12:25:50;;;;;;;291.37;41.63;;;8.50;99.90;;;;;;5047808;28;20456;-78
2022/02/22 12:28:21;;;;;;;290.17;39.70;;;8.50;99.90;;;;;;5048472;28;20448;-80